ADDS METAR Data INFO
IDs: Format: Raw Decoded Include TAF

Data at: 1147 UTC 25 Jun 2018

KGOP 251135Z AUTO 16006KT 10SM BKN042 25/21 A2998 RMK AO2
KGOP 251115Z AUTO 16006KT 10SM SCT041 25/21 A2997 RMK AO2
KGOP 251055Z AUTO 17007G15KT 10SM CLR 25/21 A2996 RMK AO2
KGOP 251035Z AUTO 18013KT 10SM FEW034 26/21 A2995 RMK AO2
KGOP 251015Z AUTO 18011KT 10SM FEW025 BKN034 26/21 A2994 RMK AO2
KGOP 250955Z AUTO 16008KT 10SM SCT023 SCT032 26/21 A2993 RMK AO2
KGOP 250935Z AUTO 17008KT 10SM SCT024 SCT031 26/21 A2993 RMK AO2
KGOP 250915Z AUTO 17008G14KT 10SM FEW026 FEW032 26/21 A2992 RMK AO2
KGOP 250855Z AUTO 16009G14KT 10SM FEW024 SCT032 26/21 A2992 RMK AO2
KGOP 250835Z AUTO 17009KT 10SM FEW021 FEW025 SCT033 26/22 A2991 RMK AO2
KGOP 250815Z AUTO 16008G16KT 10SM SCT031 26/22 A2990 RMK AO2
KGOP 250755Z AUTO 16012G22KT 10SM FEW023 BKN031 26/22 A2989 RMK AO2
KGOP 250735Z AUTO 16013G19KT 10SM SCT021 SCT026 26/22 A2990 RMK AO2
KGOP 250715Z AUTO 16014G20KT 10SM FEW020 26/22 A2989 RMK AO2
KGOP 250655Z AUTO 16014G21KT 10SM FEW021 26/22 A2990 RMK AO2
KGOP 250635Z AUTO 16014G23KT 10SM CLR 26/22 A2990 RMK AO2
KGOP 250615Z AUTO 15012G19KT 10SM CLR 27/22 A2990 RMK AO2
KGOP 250555Z AUTO 15011G17KT 10SM CLR 27/22 A2991 RMK AO2
KGOP 250535Z AUTO 15009G15KT 10SM CLR 27/22 A2991 RMK AO2
KGOP 250515Z AUTO 15009G15KT 10SM CLR 27/22 A2990 RMK AO2
KGOP 250455Z AUTO 15012G18KT 10SM CLR 28/22 A2990 RMK AO2
KGOP 250435Z AUTO 16012G18KT 10SM CLR 28/22 A2991 RMK AO2
KGOP 250415Z AUTO 15012G20KT 10SM CLR 28/21 A2992 RMK AO2
KGOP 250355Z AUTO 15010G18KT 10SM CLR 29/21 A2992 RMK AO2
KGOP 250335Z AUTO 15010G15KT 10SM CLR 29/21 A2992 RMK AO2
KGOP 250315Z AUTO 14010KT 10SM CLR 29/21 A2991 RMK AO2
KGOP 250255Z AUTO 14011KT 10SM CLR 30/21 A2990 RMK AO2
KGOP 250235Z AUTO 14009G17KT 10SM CLR 30/21 A2989 RMK AO2
KGOP 250215Z AUTO 14008KT 10SM CLR 30/21 A2988 RMK AO2
KGOP 250155Z AUTO 14008G15KT 10SM CLR 31/21 A2986 RMK AO2
KGOP 250135Z AUTO 13011G18KT 10SM CLR 32/21 A2985 RMK AO2
KGOP 250115Z AUTO 15014G19KT 10SM CLR 32/20 A2983 RMK AO2
KGOP 250055Z AUTO 15014G23KT 10SM CLR 33/20 A2982 RMK AO2
KGOP 250035Z AUTO 15013G20KT 10SM CLR 33/20 A2983 RMK AO2
KGOP 250015Z AUTO 14014G22KT 10SM CLR 34/20 A2982 RMK AO2
KGOP 242355Z AUTO 15013G20KT 10SM CLR 34/19 A2982 RMK AO2
KGOP 242335Z AUTO 16017KT 10SM CLR 35/19 A2981 RMK AO2
KGOP 242315Z AUTO 16016G24KT 10SM CLR 35/18 A2981 RMK AO2
KGOP 242255Z AUTO 15016G23KT 10SM CLR 36/18 A2981 RMK AO2
KGOP 242235Z AUTO 15015G24KT 10SM CLR 36/19 A2981 RMK AO2
KGOP 242215Z AUTO 16015G23KT 10SM CLR 36/19 A2981 RMK AO2
KGOP 242155Z AUTO 15020G25KT 10SM CLR 36/19 A2981 RMK AO2
KGOP 242135Z AUTO 15014G25KT 10SM CLR 36/19 A2982 RMK AO2
KGOP 242115Z AUTO 16012G24KT 10SM CLR 36/19 A2982 RMK AO2
KGOP 242055Z AUTO 16018KT 10SM CLR 36/19 A2983 RMK AO2
KGOP 242035Z AUTO 15014G23KT 10SM CLR 36/19 A2983 RMK AO2
KGOP 242015Z AUTO 15015G24KT 10SM CLR 36/19 A2983 RMK AO2
KGOP 241955Z AUTO 16013G21KT 10SM CLR 36/19 A2985 RMK AO2
KGOP 241935Z AUTO 14011G20KT 120V190 10SM CLR 35/19 A2985 RMK AO2
KGOP 241915Z AUTO 17011G20KT 10SM CLR 35/19 A2986 RMK AO2
KGOP 241855Z AUTO 14015KT 10SM FEW038 FEW046 FEW070 35/19 A2986 RMK AO2
KGOP 241835Z AUTO 16011G17KT 10SM CLR 35/20 A2987 RMK AO2
KGOP 241815Z AUTO 16012KT 10SM CLR 34/20 A2987 RMK AO2
KGOP 241755Z AUTO 19011G17KT 150V220 10SM CLR 34/20 A2988 RMK AO2
KGOP 241735Z AUTO 17010G18KT 10SM CLR 34/20 A2988 RMK AO2
KGOP 241715Z AUTO 17009G20KT 10SM FEW046 33/20 A2988 RMK AO2
KGOP 241655Z AUTO 20012G20KT 10SM CLR 33/20 A2988 RMK AO2
KGOP 241635Z AUTO 18014G21KT 10SM FEW044 FEW110 32/20 A2989 RMK AO2
KGOP 241615Z AUTO 18013G22KT 10SM CLR 32/20 A2988 RMK AO2
KGOP 241555Z AUTO 18015G25KT 10SM FEW038 FEW120 31/20 A2988 RMK AO2
KGOP 241535Z AUTO 19015G21KT 10SM FEW038 FEW120 31/20 A2988 RMK AO2
KGOP 241515Z AUTO 17015G23KT 10SM FEW035 30/20 A2987 RMK AO2
KGOP 241455Z AUTO 18013G19KT 10SM FEW032 30/21 A2987 RMK AO2
KGOP 241435Z AUTO 18013KT 10SM FEW031 29/21 A2987 RMK AO2
KGOP 241415Z AUTO 18016G24KT 10SM FEW028 28/21 A2987 RMK AO2
KGOP 241355Z AUTO 19014KT 10SM FEW028 27/21 A2986 RMK AO2
KGOP 241335Z AUTO 18013G23KT 10SM FEW026 FEW031 27/21 A2986 RMK AO2
KGOP 241315Z AUTO 18014G23KT 10SM FEW024 FEW028 26/21 A2985 RMK AO2
KGOP 241255Z AUTO 17008G14KT 10SM SCT023 SCT027 26/21 A2985 RMK AO2
KGOP 241235Z AUTO 18009G14KT 10SM FEW022 FEW027 26/21 A2984 RMK AO2
KGOP 241215Z AUTO 18011KT 10SM SCT023 SCT029 26/21 A2983 RMK AO2
KGOP 241155Z AUTO 18011G18KT 10SM SCT023 BKN029 26/21 A2983 RMK AO2
KGOP 241135Z AUTO 18011G19KT 10SM BKN024 BKN028 26/21 A2982 RMK AO2
KGOP 241115Z AUTO 17012G17KT 10SM SCT024 BKN030 26/21 A2982 RMK AO2
KGOP 241055Z AUTO 17013KT 10SM CLR 26/21 A2981 RMK AO2
KGOP 241035Z AUTO 18013G20KT 10SM CLR 26/21 A2981 RMK AO2
KGOP 241015Z AUTO 18014G19KT 10SM CLR 26/21 A2980 RMK AO2
KGOP 240955Z AUTO 17016G25KT 10SM CLR 26/21 A2976 RMK AO2
KGOP 240935Z AUTO 16013G20KT 10SM CLR 26/21 A2978 RMK AO2
KGOP 240915Z AUTO 16014G20KT 10SM CLR 26/22 A2979 RMK AO2
KGOP 240855Z AUTO 16013G21KT 10SM CLR 26/22 A2979 RMK AO2
KGOP 240835Z AUTO 16011KT 10SM CLR 27/23 A2981 RMK AO2
KGOP 240815Z AUTO 17009G20KT 10SM CLR 27/23 A2982 RMK AO2
KGOP 240755Z AUTO 17011G19KT 10SM CLR 27/23 A2982 RMK AO2
KGOP 240735Z AUTO 15014G21KT 10SM CLR 27/22 A2981 RMK AO2
KGOP 240715Z AUTO 15012KT 10SM CLR 28/22 A2982 RMK AO2
KGOP 240655Z AUTO 16012G18KT 10SM CLR 28/22 A2985 RMK AO2
KGOP 240635Z AUTO 16009KT 10SM CLR 28/22 A2987 RMK AO2 LTG DSNT N
KGOP 240615Z AUTO 18007KT 10SM CLR 28/22 A2990 RMK AO2 LTG DSNT SW-N
KGOP 240555Z AUTO 17006KT 10SM CLR 28/22 A2991 RMK AO2 LTG DSNT N AND W
KGOP 240535Z AUTO 18007G16KT 10SM CLR 28/22 A2990 RMK AO2 LTG DSNT W
KGOP 240515Z AUTO 17007KT 140V200 10SM CLR 28/22 A2988 RMK AO2
KGOP 240455Z AUTO 16008G15KT 10SM CLR 28/22 A2986 RMK AO2
KGOP 240435Z AUTO 16009G17KT 10SM CLR 29/22 A2985 RMK AO2
KGOP 240415Z AUTO 15012G17KT 10SM CLR 29/21 A2983 RMK AO2
KGOP 240355Z AUTO 15012KT 10SM CLR 29/21 A2982 RMK AO2
KGOP 240335Z AUTO 15009G16KT 10SM CLR 29/21 A2982 RMK AO2
KGOP 240315Z AUTO 14012G17KT 10SM CLR 30/21 A2980 RMK AO2
KGOP 240255Z AUTO 14013G18KT 10SM CLR 30/21 A2979 RMK AO2
KGOP 240235Z AUTO 14011G16KT 10SM CLR 31/21 A2977 RMK AO2
KGOP 240215Z AUTO 14013G20KT 10SM CLR 31/21 A2976 RMK AO2
KGOP 240155Z AUTO 15011G18KT 10SM CLR 31/21 A2976 RMK AO2
KGOP 240135Z AUTO 15012G20KT 10SM CLR 32/21 A2975 RMK AO2
KGOP 240115Z AUTO 14012G18KT 10SM CLR 32/21 A2974 RMK AO2
KGOP 240055Z AUTO 13013G18KT 10SM CLR 33/21 A2975 RMK AO2
KGOP 240035Z AUTO 13012G20KT 10SM CLR 33/21 A2975 RMK AO2
KGOP 240015Z AUTO 13012KT 10SM CLR 34/21 A2974 RMK AO2
KGOP 232355Z AUTO 13012KT 10SM CLR 35/20 A2974 RMK AO2